High Point Park, New Jersey
Current Conditions -  °F | °C
As of 6:53 PM on Sunday 25 Jan 2015 (Local Time) from KFWN Reporting Station
Clear Clear  
Wind Chill: 23°   Ceiling: Unl
Heat Index: 28°   Visibility: 10mi
Dew Point:   Wind: 5mph
Humidity: 43%   Direction: 290°WNW
Pressure: 29.91"   Gusts: NA
Location:  41.2395°N, 74.6087°W
Report Text: KFWN 252353Z AUTO 29004KT 10SM CLR M02/M13 A2991 RMK AO2 SLP134 T10221133 10028 21022 53032
Loading
Personal Weather Stations






























Interactive Weather Map New forecast layout! Learn more

10-Day Weather Forecast

Advertisements
Track Severe Weather on mobile